Time;durP1;ratioP1;P1;durP2;ratioP2;P2;SDS_P1;SDS_P2;PMS_P1;PMS_P2;Temp;Humidity;BMP_temperature;BMP_pressure;BME280_temperature;BME280_humidity;BME280_pressure;Samples;Min_cycle;Max_cycle;Signal;HPM_P1;HPM_P2
2022/01/21 00:01:21;;;;;;;12.68;2.40;;;3.20;99.90;;;;;;4787632;30;20077;-83
2022/01/21 00:03:47;;;;;;;13.77;2.35;;;3.20;99.90;;;;;;4787977;30;20047;-83
2022/01/21 00:06:13;;;;;;;15.07;2.53;;;3.30;99.90;;;;;;4773176;30;20380;-83
2022/01/21 00:08:40;;;;;;;12.20;2.10;;;3.30;99.90;;;;;;4787704;30;20055;-83
2022/01/21 00:11:06;;;;;;;12.45;2.20;;;3.50;99.90;;;;;;4788974;29;20155;-83
2022/01/21 00:13:35;;;;;;;12.48;2.00;;;3.40;99.90;;;;;;4787398;30;20091;-83
2022/01/21 00:16:05;;;;;;;12.00;2.10;;;3.30;99.90;;;;;;4787176;29;20055;-83
2022/01/21 00:18:32;;;;;;;11.75;1.92;;;3.30;99.90;;;;;;4788548;29;20104;-83
2022/01/21 00:31:54;;;;;;;11.57;1.75;;;2.90;99.90;;;;;;4787659;30;20113;-83
2022/01/21 00:34:20;;;;;;;6.85;1.38;;;2.90;99.90;;;;;;4787443;30;20491;-83
2022/01/21 00:36:45;;;;;;;15.25;2.00;;;2.90;99.90;;;;;;4788242;29;20052;-83
2022/01/21 00:39:12;;;;;;;13.00;2.00;;;3.00;99.90;;;;;;4787466;30;20102;-83
2022/01/21 00:41:46;;;;;;;13.25;2.00;;;3.00;99.90;;;;;;4788109;29;20055;-83
2022/01/21 00:44:11;;;;;;;8.85;1.50;;;3.00;99.90;;;;;;4787440;30;20063;-83
2022/01/21 00:46:37;;;;;;;12.57;1.90;;;2.90;99.90;;;;;;4786953;30;20406;-83
2022/01/21 00:49:03;;;;;;;9.38;1.65;;;3.10;99.90;;;;;;4788450;29;20066;-83
2022/01/21 00:51:29;;;;;;;11.43;2.10;;;3.00;99.90;;;;;;4786982;30;20055;-83
2022/01/21 00:53:55;;;;;;;11.98;1.67;;;2.90;99.90;;;;;;4788242;29;20051;-83
2022/01/21 00:56:20;;;;;;;15.00;1.90;;;2.80;99.90;;;;;;4787252;30;20483;-83
2022/01/21 00:58:46;;;;;;;9.10;1.58;;;2.80;99.90;;;;;;4786637;29;20461;-83
2022/01/21 01:01:12;;;;;;;12.57;1.80;;;2.70;99.90;;;;;;4772405;30;20066;-83
2022/01/21 01:03:37;;;;;;;9.15;2.13;;;2.80;99.90;;;;;;4787699;29;20104;-83
2022/01/21 01:06:03;;;;;;;8.88;1.60;;;2.70;99.90;;;;;;4787004;30;20497;-84
2022/01/21 01:08:29;;;;;;;10.75;1.67;;;2.70;99.90;;;;;;4772040;30;20055;-82
2022/01/21 01:21:32;;;;;;;5.65;1.60;;;2.80;99.90;;;;;;4786487;30;20098;-82
2022/01/21 01:29:21;;;;;;;13.40;2.13;;;2.90;99.90;;;;;;4787817;30;20104;-83
2022/01/21 01:31:46;;;;;;;10.68;1.77;;;3.00;99.90;;;;;;4771264;30;20449;-83
2022/01/21 01:34:12;;;;;;;15.38;2.00;;;3.00;99.90;;;;;;4787633;29;20134;-83
2022/01/21 01:36:39;;;;;;;12.90;1.65;;;3.10;99.90;;;;;;4787259;29;20047;-84
2022/01/21 01:39:44;;;;;;;11.55;1.70;;;3.10;99.90;;;;;;4787724;29;20043;-83
2022/01/21 01:43:00;;;;;;;11.77;1.50;;;3.10;99.90;;;;;;4784935;30;20098;-84
2022/01/21 01:50:30;;;;;;;11.90;1.52;;;3.20;99.90;;;;;;4787599;30;20452;-84
2022/01/21 01:52:56;;;;;;;9.55;1.42;;;3.20;99.90;;;;;;4785891;30;20192;-83
2022/01/21 01:55:22;;;;;;;10.10;1.30;;;3.20;99.90;;;;;;4786393;30;20174;-84
2022/01/21 01:57:48;;;;;;;14.25;1.30;;;3.10;99.90;;;;;;4787123;29;20051;-83
2022/01/21 02:00:14;;;;;;;6.75;1.35;;;3.00;99.90;;;;;;4786310;30;20047;-84
2022/01/21 02:02:39;;;;;;;8.68;1.23;;;3.00;99.90;;;;;;4787025;29;20070;-83
2022/01/21 02:05:05;;;;;;;8.32;1.58;;;2.90;99.90;;;;;;4771408;30;20403;-84
2022/01/21 02:07:31;;;;;;;8.98;1.40;;;2.80;99.90;;;;;;4786426;30;20059;-84
2022/01/21 02:09:56;;;;;;;12.25;1.50;;;2.80;99.90;;;;;;4786033;30;20059;-83
2022/01/21 02:12:22;;;;;;;9.48;1.08;;;2.70;99.90;;;;;;4787114;29;20569;-83
2022/01/21 02:14:51;;;;;;;7.47;0.95;;;2.70;99.90;;;;;;4785428;30;20062;-83
2022/01/21 02:22:49;;;;;;;6.43;1.17;;;2.80;99.90;;;;;;4786623;30;20112;-84
2022/01/21 02:25:19;;;;;;;6.45;1.13;;;2.80;99.90;;;;;;4786047;30;20065;-84
2022/01/21 02:27:49;;;;;;;5.28;1.02;;;2.90;99.90;;;;;;4786620;29;20396;-84
2022/01/21 02:30:18;;;;;;;11.73;1.63;;;2.90;99.90;;;;;;4786962;29;20114;-84
2022/01/21 02:32:48;;;;;;;9.60;1.42;;;2.90;99.90;;;;;;4785374;30;20061;-83
2022/01/21 02:35:14;;;;;;;5.78;1.10;;;2.90;99.90;;;;;;4785744;30;20384;-84
2022/01/21 02:37:39;;;;;;;11.52;1.58;;;2.90;99.90;;;;;;4785795;30;20124;-84
2022/01/21 02:40:07;;;;;;;8.10;0.80;;;2.90;99.90;;;;;;4787170;29;20495;-83
2022/01/21 02:42:32;;;;;;;5.88;0.90;;;2.80;99.90;;;;;;4790291;29;20098;-84
2022/01/21 02:44:59;;;;;;;7.10;1.20;;;2.80;99.90;;;;;;4790060;29;20091;-84
2022/01/21 02:47:25;;;;;;;8.40;0.93;;;2.70;99.90;;;;;;4789223;30;20087;-84
2022/01/21 02:49:50;;;;;;;7.28;1.30;;;2.70;99.90;;;;;;4790028;29;20093;-83
2022/01/21 02:52:18;;;;;;;7.55;1.20;;;2.70;99.90;;;;;;4789138;30;20398;-84
2022/01/21 02:54:44;;;;;;;6.40;1.05;;;2.60;99.90;;;;;;4788440;30;20051;-83
2022/01/21 02:57:10;;;;;;;5.40;0.95;;;2.70;99.90;;;;;;4789172;30;20149;-84
2022/01/21 02:59:35;;;;;;;10.05;1.52;;;2.60;99.90;;;;;;4788505;30;20052;-84
2022/01/21 03:02:01;;;;;;;12.02;1.33;;;2.60;99.90;;;;;;4789858;30;20054;-83
2022/01/21 03:06:55;;;;;;;7.60;1.17;;;2.70;99.90;;;;;;4788467;30;20146;-84
2022/01/21 03:09:21;;;;;;;8.05;1.10;;;2.70;99.90;;;;;;4789956;29;20145;-84
2022/01/21 03:11:47;;;;;;;8.68;1.20;;;2.80;99.90;;;;;;4789382;29;20138;-83
2022/01/21 03:14:12;;;;;;;4.60;0.90;;;2.80;99.90;;;;;;4789628;29;20051;-84
2022/01/21 03:16:38;;;;;;;5.30;1.38;;;2.70;99.90;;;;;;4789777;29;20051;-84
2022/01/21 03:19:03;;;;;;;7.90;1.33;;;2.60;99.90;;;;;;4789036;29;20058;-83
2022/01/21 03:21:29;;;;;;;7.13;1.17;;;2.60;99.90;;;;;;4788490;30;20055;-84
2022/01/21 03:23:55;;;;;;;6.63;0.93;;;2.50;99.90;;;;;;4789090;29;20051;-84
2022/01/21 03:26:23;;;;;;;4.95;0.90;;;2.40;99.90;;;;;;4788458;30;20055;-84
2022/01/21 03:28:49;;;;;;;8.88;1.35;;;2.40;99.90;;;;;;4788091;30;20066;-84
2022/01/21 03:31:15;;;;;;;5.82;0.88;;;2.30;99.90;;;;;;4789285;29;20119;-84
2022/01/21 03:33:41;;;;;;;6.50;0.90;;;2.20;99.90;;;;;;4773552;30;20134;-84
2022/01/21 03:36:07;;;;;;;6.95;0.85;;;2.20;99.90;;;;;;4788977;29;20055;-84
2022/01/21 03:38:33;;;;;;;5.70;0.90;;;2.20;99.90;;;;;;4788297;30;20482;-84
2022/01/21 03:40:58;;;;;;;10.40;1.35;;;2.10;99.90;;;;;;4787884;29;20063;-84
2022/01/21 03:43:24;;;;;;;8.65;1.30;;;2.10;99.90;;;;;;4787769;30;20055;-84
2022/01/21 03:45:50;;;;;;;6.57;1.10;;;2.20;99.90;;;;;;4787642;30;20066;-83
2022/01/21 03:48:16;;;;;;;8.25;1.13;;;2.10;99.90;;;;;;4787874;30;20142;-83
2022/01/21 03:50:42;;;;;;;8.68;1.42;;;2.20;99.90;;;;;;4788192;29;20051;-84
2022/01/21 03:53:08;;;;;;;11.57;1.70;;;2.10;99.90;;;;;;4787393;30;20058;-83
2022/01/21 03:55:34;;;;;;;15.23;1.95;;;2.10;99.90;;;;;;4787749;29;20051;-84
2022/01/21 03:58:00;;;;;;;14.90;1.50;;;2.10;99.90;;;;;;4787643;30;20117;-84
2022/01/21 04:00:29;;;;;;;9.98;1.38;;;2.10;99.90;;;;;;4788094;30;20098;-84
2022/01/21 04:02:55;;;;;;;9.88;1.60;;;2.20;99.90;;;;;;4788471;29;20502;-84
2022/01/21 04:05:20;;;;;;;12.82;1.67;;;2.10;99.90;;;;;;4788788;29;20094;-84
2022/01/21 04:07:46;;;;;;;9.95;1.48;;;2.10;99.90;;;;;;4788952;29;20051;-84
2022/01/21 04:10:12;;;;;;;16.30;1.90;;;2.10;99.90;;;;;;4787047;30;20360;-84
2022/01/21 04:12:37;;;;;;;12.38;1.70;;;2.10;99.90;;;;;;4787683;30;20113;-84
2022/01/21 04:15:04;;;;;;;12.40;1.42;;;2.20;99.90;;;;;;4787029;30;20043;-83
2022/01/21 04:17:29;;;;;;;18.08;2.17;;;2.10;99.90;;;;;;4788578;29;20047;-84
2022/01/21 04:19:55;;;;;;;16.55;2.00;;;2.10;99.90;;;;;;4787064;30;20134;-83
2022/01/21 04:22:21;;;;;;;12.02;2.00;;;2.10;99.90;;;;;;4787688;30;20051;-84
2022/01/21 04:24:48;;;;;;;13.07;2.13;;;2.00;99.90;;;;;;4787368;30;20090;-84
2022/01/21 04:27:14;;;;;;;14.82;1.77;;;2.10;99.90;;;;;;4788084;29;20102;-84
2022/01/21 04:29:40;;;;;;;9.70;1.75;;;2.20;99.90;;;;;;4787250;30;20086;-84
2022/01/21 04:32:06;;;;;;;17.45;2.25;;;2.10;99.90;;;;;;4788001;29;20051;-84
2022/01/21 04:34:32;;;;;;;16.13;2.08;;;2.10;99.90;;;;;;4788227;29;20047;-84
2022/01/21 04:36:57;;;;;;;12.15;1.48;;;2.10;99.90;;;;;;4772101;30;20100;-83
2022/01/21 04:39:29;;;;;;;12.13;1.83;;;2.10;99.90;;;;;;4787032;29;20181;-84
2022/01/21 04:47:23;;;;;;;10.55;1.67;;;2.20;99.90;;;;;;4787951;30;20074;-84
2022/01/21 04:49:49;;;;;;;10.70;1.50;;;2.30;99.90;;;;;;4787893;29;20142;-84
2022/01/21 04:52:15;;;;;;;19.58;2.20;;;2.20;99.90;;;;;;4787659;29;20051;-84
2022/01/21 04:54:40;;;;;;;14.05;1.80;;;2.20;99.90;;;;;;4787912;29;20047;-84
2022/01/21 04:57:06;;;;;;;13.63;1.50;;;2.20;99.90;;;;;;4787633;29;20053;-84
2022/01/21 04:59:32;;;;;;;8.48;1.52;;;2.20;99.90;;;;;;4786820;30;20379;-84
2022/01/21 05:01:58;;;;;;;14.88;1.55;;;2.20;99.90;;;;;;4787630;29;20051;-84
2022/01/21 05:04:24;;;;;;;12.68;1.50;;;2.10;99.90;;;;;;4786760;30;20043;-84
2022/01/21 05:06:51;;;;;;;14.32;1.70;;;2.00;99.90;;;;;;4787030;30;20090;-84
2022/01/21 05:09:17;;;;;;;13.65;1.95;;;2.00;99.90;;;;;;4787428;29;20126;-84
2022/01/21 05:11:47;;;;;;;13.05;1.65;;;2.00;99.90;;;;;;4772119;30;20109;-84
2022/01/21 05:14:22;;;;;;;12.43;1.52;;;2.20;99.90;;;;;;4787256;29;20051;-84
2022/01/21 05:16:50;;;;;;;11.85;1.90;;;2.00;99.90;;;;;;4787838;29;20066;-84
2022/01/21 05:19:17;;;;;;;13.13;2.25;;;2.00;99.90;;;;;;4787307;29;20055;-84
2022/01/21 05:21:44;;;;;;;13.52;1.77;;;2.00;99.90;;;;;;4787672;29;20056;-84
2022/01/21 05:24:10;;;;;;;14.90;2.40;;;2.00;99.90;;;;;;4786031;30;20058;-84
2022/01/21 05:26:38;;;;;;;12.23;1.70;;;2.10;99.90;;;;;;4787473;29;20055;-84
2022/01/21 05:29:04;;;;;;;14.75;1.77;;;2.10;99.90;;;;;;4787216;29;20134;-83
2022/01/21 05:31:30;;;;;;;17.83;2.10;;;2.20;99.90;;;;;;4786478;30;20074;-84
2022/01/21 05:33:56;;;;;;;9.27;1.63;;;2.30;99.90;;;;;;4787568;29;20481;-85
2022/01/21 05:36:21;;;;;;;14.02;2.00;;;2.30;99.90;;;;;;4786656;29;20048;-86
2022/01/21 05:38:47;;;;;;;13.18;1.67;;;2.40;99.90;;;;;;4786372;30;20055;-87
2022/01/21 05:41:13;;;;;;;9.57;1.83;;;2.40;99.90;;;;;;4786810;29;20055;-87
2022/01/21 05:43:45;;;;;;;12.85;1.30;;;2.40;99.90;;;;;;4787333;29;20062;-88
2022/01/21 05:46:29;;;;;;;9.27;1.20;;;2.50;99.90;;;;;;4785516;30;20526;-87
2022/01/21 05:48:55;;;;;;;10.10;1.52;;;2.30;99.90;;;;;;4787464;29;20063;-86
2022/01/21 05:51:21;;;;;;;10.48;1.58;;;2.40;99.90;;;;;;4785742;30;20505;-85
2022/01/21 05:53:46;;;;;;;8.48;1.58;;;2.40;99.90;;;;;;4786961;29;20451;-86
2022/01/21 05:56:12;;;;;;;11.25;1.42;;;2.50;99.90;;;;;;4785413;30;20063;-85
2022/01/21 05:58:38;;;;;;;11.95;1.67;;;2.50;99.90;;;;;;4786013;30;20047;-86
2022/01/21 06:01:04;;;;;;;10.82;1.60;;;2.70;99.90;;;;;;4771417;30;20119;-86
2022/01/21 06:03:31;;;;;;;12.63;1.63;;;2.50;99.90;;;;;;4785425;30;20376;-90
2022/01/21 06:05:57;;;;;;;11.65;1.50;;;2.50;99.90;;;;;;4756414;30;20097;-85
2022/01/21 06:08:22;;;;;;;15.88;1.95;;;2.60;99.90;;;;;;4785279;30;20098;-85
2022/01/21 06:10:48;;;;;;;9.38;1.40;;;2.60;99.90;;;;;;4786009;30;20494;-86
2022/01/21 06:13:16;;;;;;;11.93;1.95;;;2.60;99.90;;;;;;4770851;29;20044;-86
2022/01/21 06:15:42;;;;;;;19.48;2.55;;;2.60;99.90;;;;;;4789742;29;20563;-87
2022/01/21 06:18:08;;;;;;;8.00;1.70;;;2.70;99.90;;;;;;4774703;30;20055;-83
2022/01/21 06:20:33;;;;;;;14.30;1.73;;;2.80;99.90;;;;;;4790538;29;20055;-86
2022/01/21 06:22:59;;;;;;;13.98;1.70;;;2.70;99.90;;;;;;4789111;30;20495;-85
2022/01/21 06:25:25;;;;;;;14.50;1.80;;;2.70;99.90;;;;;;4759373;30;20055;-85
2022/01/21 06:27:50;;;;;;;11.30;1.90;;;2.60;99.90;;;;;;4789474;30;20142;-86
2022/01/21 06:30:16;;;;;;;15.00;1.63;;;2.60;99.90;;;;;;4790057;29;20055;-86
2022/01/21 06:32:42;;;;;;;12.45;1.67;;;2.60;99.90;;;;;;4774486;30;20408;-86
2022/01/21 06:35:11;;;;;;;15.05;1.77;;;2.60;99.90;;;;;;4790333;29;20452;-85
2022/01/21 06:37:37;;;;;;;13.02;1.55;;;2.60;99.90;;;;;;4789134;30;20503;-85
2022/01/21 06:40:06;;;;;;;10.27;1.45;;;2.60;99.90;;;;;;4789399;30;20058;-85
2022/01/21 06:42:32;;;;;;;17.00;2.33;;;2.60;99.90;;;;;;4789954;29;20059;-85
2022/01/21 06:44:58;;;;;;;12.88;1.80;;;2.50;99.90;;;;;;4774166;30;20406;-86
2022/01/21 06:47:24;;;;;;;12.43;1.60;;;2.50;99.90;;;;;;4773631;30;20485;-86
2022/01/21 06:49:50;;;;;;;6.47;1.30;;;2.40;99.90;;;;;;4790293;29;20071;-85
2022/01/21 06:52:15;;;;;;;10.40;1.95;;;2.40;99.90;;;;;;4788840;30;20051;-85
2022/01/21 06:54:41;;;;;;;11.75;1.50;;;2.30;99.90;;;;;;4790054;29;20051;-86
2022/01/21 06:57:07;;;;;;;8.45;1.67;;;2.10;99.90;;;;;;4790139;29;20056;-86
2022/01/21 06:59:32;;;;;;;11.40;1.40;;;2.10;99.90;;;;;;4788690;30;20062;-86
2022/01/21 07:01:58;;;;;;;9.52;1.40;;;2.10;99.90;;;;;;4788907;30;20753;-86
2022/01/21 07:04:23;;;;;;;12.48;1.42;;;2.10;99.90;;;;;;4789719;30;20061;-86
2022/01/21 07:06:49;;;;;;;10.95;1.35;;;2.10;99.90;;;;;;4789862;29;20062;-86
2022/01/21 07:09:15;;;;;;;9.15;1.27;;;1.90;99.90;;;;;;4789641;29;20047;-83
2022/01/21 07:11:40;;;;;;;13.18;1.50;;;2.00;99.90;;;;;;4788811;30;20086;-86
2022/01/21 07:14:06;;;;;;;18.15;1.85;;;2.00;99.90;;;;;;4788606;30;20508;-85
2022/01/21 07:16:31;;;;;;;10.13;1.70;;;1.90;99.90;;;;;;4789478;29;20090;-85
2022/01/21 07:18:57;;;;;;;12.50;1.48;;;2.00;99.90;;;;;;4789768;29;20082;-85
2022/01/21 07:21:23;;;;;;;13.50;1.98;;;2.00;99.90;;;;;;4788248;30;20138;-86
2022/01/21 07:23:48;;;;;;;8.68;1.45;;;1.90;99.90;;;;;;4789451;29;20694;-86
2022/01/21 07:26:14;;;;;;;12.38;1.50;;;1.90;99.90;;;;;;4788426;29;20394;-86
2022/01/21 07:28:40;;;;;;;14.32;1.60;;;2.00;99.90;;;;;;4788128;30;20062;-86
2022/01/21 07:31:06;;;;;;;12.10;1.80;;;2.10;99.90;;;;;;4789545;29;20059;-86
2022/01/21 07:33:31;;;;;;;10.02;1.58;;;2.00;99.90;;;;;;4788912;29;20047;-85
2022/01/21 07:35:57;;;;;;;12.80;2.00;;;2.00;99.90;;;;;;4789486;29;20058;-86
2022/01/21 07:38:23;;;;;;;16.13;1.88;;;2.10;99.90;;;;;;4787815;30;20055;-86
2022/01/21 07:40:48;;;;;;;13.73;1.80;;;2.10;99.90;;;;;;4788228;30;20407;-86
2022/01/21 07:43:14;;;;;;;13.80;1.60;;;2.10;99.90;;;;;;4758586;30;20470;-86
2022/01/21 07:45:40;;;;;;;10.52;1.80;;;2.30;99.90;;;;;;4787444;29;20048;-86
2022/01/21 07:48:06;;;;;;;10.32;1.77;;;2.40;99.90;;;;;;4788675;29;20067;-86
2022/01/21 07:50:32;;;;;;;13.38;1.75;;;2.40;99.90;;;;;;4788852;29;20051;-85
2022/01/21 07:52:58;;;;;;;17.90;1.83;;;2.40;99.90;;;;;;4789267;29;20051;-86
2022/01/21 07:55:23;;;;;;;10.18;1.73;;;2.50;99.90;;;;;;4787001;30;20054;-85
2022/01/21 07:57:49;;;;;;;7.45;1.50;;;2.60;99.90;;;;;;4789426;29;20058;-86
2022/01/21 08:00:15;;;;;;;7.18;1.45;;;2.50;99.90;;;;;;4788100;30;20043;-86
2022/01/21 08:02:41;;;;;;;14.77;1.77;;;2.60;99.90;;;;;;4788290;29;20081;-86
2022/01/21 08:05:07;;;;;;;9.23;1.35;;;2.50;99.90;;;;;;4772889;30;20051;-85
2022/01/21 08:07:32;;;;;;;10.20;1.60;;;2.50;99.90;;;;;;4772727;30;20069;-85
2022/01/21 08:09:58;;;;;;;11.40;2.13;;;2.50;99.90;;;;;;4788858;29;20051;-86
2022/01/21 08:12:24;;;;;;;10.02;1.75;;;2.50;99.90;;;;;;4788521;29;20055;-85
2022/01/21 08:14:49;;;;;;;12.40;2.22;;;2.40;99.90;;;;;;4788658;29;20522;-86
2022/01/21 08:17:15;;;;;;;12.57;2.08;;;2.30;99.90;;;;;;4788806;29;20058;-86
2022/01/21 08:19:41;;;;;;;11.75;1.92;;;2.30;99.90;;;;;;4787082;30;20399;-85
2022/01/21 08:22:06;;;;;;;8.18;1.48;;;2.20;99.90;;;;;;4788693;29;20047;-86
2022/01/21 08:24:32;;;;;;;9.93;1.85;;;2.30;99.90;;;;;;4787029;30;20051;-86
2022/01/21 08:26:57;;;;;;;10.98;1.95;;;2.20;99.90;;;;;;4788538;29;20101;-85
2022/01/21 08:29:23;;;;;;;11.20;2.20;;;2.30;99.90;;;;;;4788515;29;20559;-86
2022/01/21 08:31:49;;;;;;;17.90;3.55;;;2.20;99.90;;;;;;4786844;30;20086;-86
2022/01/21 08:34:15;;;;;;;10.25;3.05;;;2.30;99.90;;;;;;4788457;29;20046;-86
2022/01/21 08:36:40;;;;;;;15.18;2.75;;;2.30;99.90;;;;;;4787201;29;20055;-86
2022/01/21 08:39:06;;;;;;;11.85;2.38;;;2.30;99.90;;;;;;4787246;29;20491;-86
2022/01/21 08:41:32;;;;;;;12.35;1.95;;;2.30;99.90;;;;;;4787973;29;20051;-85
2022/01/21 08:43:57;;;;;;;9.23;2.05;;;2.30;99.90;;;;;;4787464;30;20398;-87
2022/01/21 08:46:23;;;;;;;7.80;1.83;;;2.30;99.90;;;;;;4772504;30;20055;-86
2022/01/21 08:48:49;;;;;;;13.50;2.03;;;2.30;99.90;;;;;;4770686;30;20066;-85
2022/01/21 08:51:21;;;;;;;18.70;2.47;;;2.30;99.90;;;;;;4786474;30;20097;-85
2022/01/21 08:53:47;;;;;;;15.07;2.28;;;2.40;99.90;;;;;;4786557;30;20601;-86
2022/01/21 08:56:14;;;;;;;12.55;1.80;;;2.30;99.90;;;;;;4788098;29;20188;-86
2022/01/21 08:58:40;;;;;;;13.38;2.13;;;2.30;99.90;;;;;;4787616;29;20418;-86
2022/01/21 09:01:06;;;;;;;13.93;2.10;;;2.40;99.90;;;;;;4787838;29;20059;-85
2022/01/21 09:03:32;;;;;;;14.88;2.08;;;2.50;99.90;;;;;;4786558;29;20055;-86
2022/01/21 09:05:57;;;;;;;13.55;2.28;;;2.70;99.90;;;;;;4787968;29;20058;-87
2022/01/21 09:08:25;;;;;;;15.25;2.35;;;2.70;99.90;;;;;;4788107;29;20058;-88
2022/01/21 09:10:54;;;;;;;18.42;2.88;;;2.90;99.90;;;;;;4786362;30;20055;-86
2022/01/21 09:13:21;;;;;;;16.20;2.50;;;2.90;99.90;;;;;;4787899;29;20427;-86
2022/01/21 09:15:47;;;;;;;17.63;2.97;;;3.10;99.90;;;;;;4786218;30;20062;-86
2022/01/21 09:18:18;;;;;;;17.42;3.00;;;3.10;99.90;;;;;;4787722;29;20055;-87
2022/01/21 09:20:43;;;;;;;15.63;2.67;;;3.20;99.90;;;;;;4786452;30;20055;-86
2022/01/21 09:23:09;;;;;;;16.23;2.60;;;3.40;99.90;;;;;;4786612;30;20459;-85
2022/01/21 09:25:35;;;;;;;12.68;2.50;;;3.50;99.90;;;;;;4770870;30;20055;-86
2022/01/21 09:28:01;;;;;;;12.18;2.38;;;3.60;99.90;;;;;;4771919;30;20090;-86
2022/01/21 09:30:27;;;;;;;14.63;2.58;;;3.70;99.90;;;;;;4786631;30;20055;-86
2022/01/21 09:32:53;;;;;;;14.43;2.53;;;3.70;99.90;;;;;;4785964;30;20135;-86
2022/01/21 09:35:18;;;;;;;17.83;3.08;;;3.80;99.90;;;;;;4786218;30;20051;-86
2022/01/21 09:37:44;;;;;;;13.63;2.80;;;4.00;99.90;;;;;;4786216;30;20134;-85
2022/01/21 09:40:10;;;;;;;13.75;2.03;;;4.00;99.90;;;;;;4771526;30;20039;-85
2022/01/21 09:42:36;;;;;;;15.95;2.88;;;4.00;99.90;;;;;;4771042;30;20052;-85
2022/01/21 09:45:08;;;;;;;11.35;2.10;;;4.10;99.90;;;;;;4787405;29;20556;-85
2022/01/21 09:47:43;;;;;;;17.30;2.40;;;4.10;99.90;;;;;;4771750;30;20070;-85
2022/01/21 09:50:09;;;;;;;13.38;1.83;;;4.30;99.90;;;;;;4787620;29;20102;-85
2022/01/21 09:52:36;;;;;;;12.60;1.98;;;4.30;99.90;;;;;;4771131;30;20098;-85
2022/01/21 09:55:02;;;;;;;24.33;2.53;;;4.40;99.90;;;;;;4771196;30;20047;-85
2022/01/21 09:57:27;;;;;;;15.77;2.55;;;4.60;99.90;;;;;;4771561;30;20403;-85
2022/01/21 09:59:53;;;;;;;12.05;1.90;;;4.60;99.90;;;;;;4771041;30;20402;-85
2022/01/21 10:02:21;;;;;;;18.38;2.42;;;4.70;99.90;;;;;;4771372;30;20054;-84
2022/01/21 10:04:49;;;;;;;17.52;3.10;;;4.70;99.90;;;;;;4756056;30;20051;-85
2022/01/21 10:07:18;;;;;;;12.77;2.38;;;4.70;99.90;;;;;;4756638;30;20062;-84
2022/01/21 10:09:45;;;;;;;11.45;2.60;;;4.80;99.90;;;;;;4771284;30;20051;-84
2022/01/21 10:12:11;;;;;;;9.45;1.83;;;4.80;99.90;;;;;;4786126;30;20059;-84
2022/01/21 10:14:38;;;;;;;12.07;2.22;;;4.70;99.90;;;;;;4785920;30;20051;-84
2022/01/21 10:17:05;;;;;;;16.63;2.20;;;4.70;99.90;;;;;;4787100;29;20055;-84
2022/01/21 10:19:32;;;;;;;11.32;2.38;;;4.60;99.90;;;;;;4771282;30;20055;-84
2022/01/21 10:22:17;;;;;;;12.30;1.98;;;4.70;99.90;;;;;;4785491;30;20072;-85
2022/01/21 10:24:57;;;;;;;18.33;2.45;;;4.70;99.90;;;;;;4770857;30;20065;-85
2022/01/21 10:27:24;;;;;;;13.65;1.85;;;4.80;99.90;;;;;;4771720;30;20051;-86
2022/01/21 10:29:50;;;;;;;18.05;2.20;;;5.00;99.90;;;;;;4785624;29;20081;-85
2022/01/21 10:32:16;;;;;;;15.88;2.60;;;5.20;99.90;;;;;;4756208;30;20140;-85
2022/01/21 10:34:44;;;;;;;24.88;3.30;;;5.20;99.90;;;;;;4770273;30;20518;-85
2022/01/21 10:37:36;;;;;;;17.98;2.50;;;5.40;99.90;;;;;;4771315;30;20059;-85
2022/01/21 10:40:09;;;;;;;15.55;2.80;;;5.50;99.90;;;;;;4783600;30;20599;-84
2022/01/21 10:42:36;;;;;;;16.05;2.75;;;5.50;99.90;;;;;;4785887;30;20616;-85
2022/01/21 10:45:02;;;;;;;19.45;2.40;;;5.50;99.90;;;;;;4770612;30;20059;-85
2022/01/21 10:47:30;;;;;;;18.48;2.88;;;5.60;99.90;;;;;;4770995;30;20074;-85
2022/01/21 10:50:03;;;;;;;17.95;2.92;;;5.60;99.90;;;;;;4770680;30;20051;-85
2022/01/21 10:52:36;;;;;;;19.98;2.78;;;5.60;99.90;;;;;;4770811;30;20051;-85
2022/01/21 10:55:03;;;;;;;20.85;3.00;;;5.70;99.90;;;;;;4785440;30;20628;-85
2022/01/21 10:57:30;;;;;;;17.70;2.70;;;5.80;99.90;;;;;;4785793;30;20647;-86
2022/01/21 11:00:00;;;;;;;18.25;3.35;;;5.90;99.90;;;;;;4770969;30;20055;-85
2022/01/21 11:02:36;;;;;;;13.13;2.15;;;6.00;99.90;;;;;;4790273;29;20163;-85
2022/01/21 11:05:06;;;;;;;14.98;2.60;;;6.00;99.90;;;;;;4789614;29;20051;-85
2022/01/21 11:07:49;;;;;;;14.23;2.80;;;6.00;99.90;;;;;;4789410;29;20142;-85
2022/01/21 11:10:36;;;;;;;16.58;2.60;;;6.10;99.90;;;;;;4774011;30;20060;-85
2022/01/21 11:13:15;;;;;;;19.17;2.13;;;6.30;99.90;;;;;;4789679;29;20055;-85
2022/01/21 11:15:47;;;;;;;17.23;3.17;;;6.30;99.90;;;;;;4788905;29;20108;-85
2022/01/21 11:18:16;;;;;;;17.77;2.60;;;6.40;99.90;;;;;;4774304;30;20059;-85
2022/01/21 11:20:42;;;;;;;15.85;2.78;;;6.50;99.90;;;;;;4773485;30;20062;-85
2022/01/21 11:23:09;;;;;;;16.73;2.50;;;6.50;99.90;;;;;;4787275;30;20059;-85
2022/01/21 11:25:54;;;;;;;19.38;2.95;;;6.60;99.90;;;;;;4788084;30;20177;-85
2022/01/21 11:28:24;;;;;;;12.32;2.70;;;6.80;99.90;;;;;;4789939;29;20095;-85
2022/01/21 11:30:51;;;;;;;14.53;2.13;;;6.80;99.90;;;;;;4788824;29;20408;-85
2022/01/21 11:33:17;;;;;;;14.20;1.95;;;6.90;99.90;;;;;;4787610;30;20300;-85
2022/01/21 11:35:43;;;;;;;14.10;2.20;;;6.90;99.90;;;;;;4787508;30;20406;-85
2022/01/21 11:38:10;;;;;;;13.95;2.10;;;7.00;99.90;;;;;;4788793;29;20055;-85
2022/01/21 11:40:36;;;;;;;15.15;2.80;;;7.10;99.90;;;;;;4787889;30;20158;-85
2022/01/21 11:43:03;;;;;;;14.38;1.98;;;7.20;99.90;;;;;;4787119;30;20063;-85
2022/01/21 11:50:45;;;;;;;13.93;2.00;;;7.20;99.90;;;;;;4788125;30;20094;-85
2022/01/21 11:53:11;;;;;;;14.02;2.05;;;7.20;99.90;;;;;;4787977;30;20134;-85
2022/01/21 11:55:47;;;;;;;13.35;2.30;;;7.20;99.90;;;;;;4787380;30;20047;-85
2022/01/21 11:58:16;;;;;;;11.88;1.77;;;7.20;99.90;;;;;;4788016;29;20395;-85
2022/01/21 12:00:43;;;;;;;7.85;1.88;;;7.30;99.90;;;;;;4772528;30;20063;-85
2022/01/21 12:03:08;;;;;;;11.77;2.00;;;7.20;99.90;;;;;;4772245;30;20052;-85
2022/01/21 12:05:34;;;;;;;18.50;2.13;;;7.20;99.90;;;;;;4772830;30;20047;-85
2022/01/21 12:08:04;;;;;;;12.35;1.80;;;7.20;99.90;;;;;;4787475;30;20119;-85
2022/01/21 12:10:37;;;;;;;16.55;2.03;;;7.20;99.90;;;;;;4787849;30;20086;-85
2022/01/21 12:13:11;;;;;;;15.73;2.13;;;7.20;99.90;;;;;;4786715;29;20070;-85
2022/01/21 12:16:17;;;;;;;13.90;2.47;;;7.20;99.90;;;;;;4788969;29;20047;-85
2022/01/21 12:19:10;;;;;;;16.33;2.20;;;7.30;99.90;;;;;;4789030;30;20055;-84
2022/01/21 12:21:38;;;;;;;13.40;2.00;;;7.30;99.90;;;;;;4774809;30;20112;-85
2022/01/21 12:24:04;;;;;;;12.20;2.28;;;7.40;99.90;;;;;;4772766;30;20070;-85
2022/01/21 12:26:30;;;;;;;9.82;1.90;;;7.40;99.90;;;;;;4773144;30;20130;-84
2022/01/21 12:28:57;;;;;;;14.05;2.10;;;7.50;99.90;;;;;;4788416;29;20406;-85
2022/01/21 12:31:48;;;;;;;10.15;1.70;;;7.50;99.90;;;;;;4787500;29;20575;-85
2022/01/21 12:34:16;;;;;;;12.95;2.22;;;7.50;99.90;;;;;;4789121;29;20066;-84
2022/01/21 12:36:49;;;;;;;14.98;2.28;;;7.50;99.90;;;;;;4787781;29;20059;-84
2022/01/21 12:39:43;;;;;;;11.32;2.00;;;7.50;99.90;;;;;;4772388;30;20070;-84
2022/01/21 12:42:21;;;;;;;15.38;1.98;;;7.60;99.90;;;;;;4787783;29;20539;-85
2022/01/21 12:45:07;;;;;;;14.20;3.47;;;7.60;99.90;;;;;;4787482;30;20051;-84
2022/01/21 12:47:43;;;;;;;16.50;2.35;;;7.60;99.90;;;;;;4788423;29;20071;-84
2022/01/21 12:50:32;;;;;;;16.42;2.45;;;7.60;99.90;;;;;;4787908;29;20435;-86
2022/01/21 12:58:32;;;;;;;15.85;2.03;;;7.60;99.90;;;;;;4786711;30;20094;-86
2022/01/21 13:00:59;;;;;;;11.52;1.83;;;7.50;99.90;;;;;;4771951;30;20051;-85
2022/01/21 13:03:44;;;;;;;18.20;2.63;;;7.40;99.90;;;;;;4771864;30;20070;-85
2022/01/21 13:06:28;;;;;;;12.55;2.25;;;7.50;99.90;;;;;;4787556;29;20411;-85
2022/01/21 13:09:06;;;;;;;17.98;2.50;;;7.50;99.90;;;;;;4786815;29;20402;-85
2022/01/21 13:11:33;;;;;;;18.17;2.40;;;7.40;99.90;;;;;;4771175;30;20059;-84
2022/01/21 13:17:12;;;;;;;12.05;1.90;;;7.40;99.90;;;;;;4786099;30;20059;-85
2022/01/21 13:19:56;;;;;;;14.40;2.72;;;7.40;99.90;;;;;;4785588;30;20452;-85
2022/01/21 13:22:28;;;;;;;13.90;2.05;;;7.40;99.90;;;;;;4770262;30;20150;-85
2022/01/21 13:25:08;;;;;;;21.02;3.42;;;7.30;99.90;;;;;;4786454;29;20407;-85
2022/01/21 13:27:53;;;;;;;17.48;2.50;;;7.30;99.90;;;;;;4786636;29;20062;-85
2022/01/21 13:30:20;;;;;;;17.40;2.70;;;7.30;99.90;;;;;;4772650;30;20058;-85
2022/01/21 13:32:46;;;;;;;15.85;2.78;;;7.30;99.90;;;;;;4770843;30;20055;-85
2022/01/21 13:35:21;;;;;;;17.20;2.50;;;7.30;99.90;;;;;;4784817;30;20058;-85
2022/01/21 13:38:21;;;;;;;19.52;2.60;;;7.40;99.90;;;;;;4785279;30;20059;-85
2022/01/21 13:40:47;;;;;;;14.15;2.67;;;7.40;99.90;;;;;;4775201;29;20146;-85
2022/01/21 13:43:17;;;;;;;16.70;2.50;;;7.40;99.90;;;;;;4784796;30;20054;-85
2022/01/21 13:45:56;;;;;;;14.50;2.58;;;7.40;99.90;;;;;;4785212;30;20134;-85
2022/01/21 13:48:23;;;;;;;19.25;3.03;;;7.40;99.90;;;;;;4769658;30;20059;-85
2022/01/21 13:50:49;;;;;;;13.95;2.53;;;7.40;99.90;;;;;;4785404;30;20062;-85
2022/01/21 13:53:14;;;;;;;14.52;2.67;;;7.40;99.90;;;;;;4784766;30;20070;-85